createdAt,value
2022-09-07T00:00:09.809Z,51.68
2022-09-07T00:01:11.382Z,51.66
2022-09-07T00:02:12.887Z,51.70
2022-09-07T00:03:14.521Z,51.70
2022-09-07T00:04:16.287Z,51.80
2022-09-07T00:05:17.802Z,51.88
2022-09-07T00:06:19.331Z,51.94
2022-09-07T00:07:20.881Z,52.09
2022-09-07T00:08:23.022Z,52.02
2022-09-07T00:09:24.663Z,51.79
2022-09-07T00:10:26.306Z,51.85
2022-09-07T00:11:27.915Z,51.98
2022-09-07T00:12:29.424Z,52.01
2022-09-07T00:13:32.177Z,52.08
2022-09-07T00:14:34.139Z,52.03
2022-09-07T00:15:39.224Z,52.02
2022-09-07T00:16:40.931Z,52.24
2022-09-07T00:17:42.493Z,51.97
2022-09-07T00:18:46.241Z,52.06
2022-09-07T00:19:48.291Z,52.25
2022-09-07T00:20:59.486Z,52.29
2022-09-07T00:22:01.053Z,52.12
2022-09-07T00:23:02.863Z,52.29
2022-09-07T00:24:04.505Z,52.25
2022-09-07T00:25:06.430Z,52.26
2022-09-07T00:26:14.538Z,52.28
2022-09-07T00:27:16.107Z,52.23
2022-09-07T00:28:17.591Z,52.42
2022-09-07T00:29:19.167Z,52.52
2022-09-07T00:30:20.665Z,52.76
2022-09-07T00:31:22.609Z,53.02
2022-09-07T00:32:24.271Z,53.13
2022-09-07T00:33:25.803Z,53.52
2022-09-07T00:34:27.318Z,53.71
2022-09-07T00:35:28.851Z,54.13
2022-09-07T00:36:30.397Z,54.20
2022-09-07T00:37:31.891Z,54.63
2022-09-07T00:38:33.414Z,54.27
2022-09-07T00:39:35.159Z,54.55
2022-09-07T00:40:36.715Z,55.36
2022-09-07T00:41:38.240Z,55.66
2022-09-07T00:42:39.850Z,55.29
2022-09-07T00:43:45.467Z,55.61
2022-09-07T00:44:59.027Z,55.02
2022-09-07T00:46:00.838Z,55.09
2022-09-07T00:47:02.347Z,55.63
2022-09-07T00:48:08.031Z,56.28
2022-09-07T00:49:12.180Z,56.87
2022-09-07T00:50:19.255Z,57.42
2022-09-07T00:51:22.425Z,58.31
2022-09-07T00:52:23.966Z,57.87
2022-09-07T00:53:27.891Z,57.88
2022-09-07T00:54:40.192Z,57.85
2022-09-07T00:55:42.531Z,58.64
2022-09-07T00:56:44.199Z,58.77
2022-09-07T00:57:46.886Z,59.08
2022-09-07T00:58:48.384Z,58.90
2022-09-07T00:59:50.591Z,58.36
2022-09-07T01:00:52.126Z,58.14
2022-09-07T01:01:53.969Z,58.05
2022-09-07T01:02:55.736Z,58.01
2022-09-07T01:03:57.548Z,58.06
2022-09-07T01:05:04.492Z,58.65
2022-09-07T01:06:16.508Z,58.41
2022-09-07T01:07:18.194Z,58.45
2022-09-07T01:08:19.683Z,58.79
2022-09-07T01:09:22.879Z,58.27
2022-09-07T01:10:25.218Z,58.10
2022-09-07T01:11:26.723Z,58.45
2022-09-07T01:12:28.249Z,59.07
2022-09-07T01:13:29.827Z,59.34
2022-09-07T01:14:32.227Z,58.98
2022-09-07T01:15:39.950Z,58.97
2022-09-07T01:16:56.702Z,58.75
2022-09-07T01:18:02.450Z,59.29
2022-09-07T01:19:15.986Z,58.93
2022-09-07T01:20:38.023Z,59.04
2022-09-07T01:21:45.182Z,59.33
2022-09-07T01:22:46.714Z,59.01
2022-09-07T01:23:48.262Z,59.69
2022-09-07T01:25:05.013Z,59.63
2022-09-07T01:26:25.446Z,59.50
2022-09-07T01:27:39.217Z,59.76
2022-09-07T01:28:41.051Z,60.27
2022-09-07T01:30:00.890Z,60.28
2022-09-07T01:31:09.544Z,60.75
2022-09-07T01:32:21.452Z,61.18
2022-09-07T01:33:41.108Z,60.96
2022-09-07T01:34:43.312Z,61.38
2022-09-07T01:35:44.882Z,61.52
2022-09-07T01:37:06.636Z,62.32
2022-09-07T01:38:17.174Z,61.27
2022-09-07T01:39:18.713Z,62.15
2022-09-07T01:40:26.027Z,61.11
2022-09-07T01:41:46.061Z,62.83
2022-09-07T01:42:54.681Z,62.43
2022-09-07T01:43:59.315Z,62.71
2022-09-07T01:45:01.691Z,62.54
2022-09-07T01:46:03.548Z,62.58
2022-09-07T01:47:06.262Z,62.87
2022-09-07T01:48:08.494Z,62.57
2022-09-07T01:49:11.273Z,62.57
2022-09-07T01:50:12.831Z,63.09
2022-09-07T01:51:14.334Z,63.48
2022-09-07T01:52:17.407Z,64.35
2022-09-07T01:53:24.639Z,63.96
2022-09-07T01:54:29.172Z,63.28
2022-09-07T01:55:35.426Z,63.85
2022-09-07T01:56:38.446Z,64.13
2022-09-07T01:57:42.731Z,64.27
2022-09-07T01:58:47.415Z,63.96
2022-09-07T01:59:51.001Z,64.13
2022-09-07T02:00:56.395Z,64.69
2022-09-07T02:02:01.003Z,64.17
2022-09-07T02:03:21.917Z,63.93
2022-09-07T02:04:24.841Z,63.98
2022-09-07T02:05:50.578Z,64.57
2022-09-07T02:07:00.209Z,64.18
2022-09-07T02:08:05.217Z,64.40
2022-09-07T02:09:08.074Z,65.01
2022-09-07T02:10:16.575Z,64.74
2022-09-07T02:11:20.115Z,64.72
2022-09-07T02:12:26.231Z,64.71
2022-09-07T02:13:37.876Z,64.11
2022-09-07T02:14:40.939Z,64.90
2022-09-07T02:15:47.533Z,64.58
2022-09-07T02:16:52.558Z,64.31
2022-09-07T02:17:55.202Z,64.99
2022-09-07T02:18:57.535Z,65.47
2022-09-07T02:20:03.850Z,64.94
2022-09-07T02:21:05.799Z,64.15
2022-09-07T02:22:09.064Z,64.08
2022-09-07T02:23:20.581Z,65.23
2022-09-07T02:24:23.838Z,65.66
2022-09-07T02:25:27.508Z,65.86
2022-09-07T02:26:29.403Z,65.36
2022-09-07T02:27:40.643Z,65.96
2022-09-07T02:28:42.227Z,65.75
2022-09-07T02:29:43.857Z,66.11
2022-09-07T02:30:46.078Z,66.51
2022-09-07T02:31:47.757Z,66.31
2022-09-07T02:32:49.277Z,66.75
2022-09-07T02:33:50.858Z,66.85
2022-09-07T02:34:52.344Z,67.01
2022-09-07T02:35:53.942Z,66.70
2022-09-07T02:36:55.440Z,66.25
2022-09-07T02:37:56.934Z,65.79
2022-09-07T02:38:58.486Z,65.18
2022-09-07T02:40:00.430Z,65.52
2022-09-07T02:41:02.598Z,65.74
2022-09-07T02:42:04.255Z,65.95
2022-09-07T02:43:06.455Z,65.75
2022-09-07T02:44:09.210Z,65.33
2022-09-07T02:45:11.317Z,66.19
2022-09-07T02:46:15.686Z,66.62
2022-09-07T02:47:36.130Z,66.97
2022-09-07T02:48:42.348Z,66.91
2022-09-07T02:50:02.672Z,66.53
2022-09-07T02:51:07.544Z,66.54
2022-09-07T02:52:11.883Z,66.53
2022-09-07T02:53:25.734Z,67.32
2022-09-07T02:54:33.479Z,67.08
2022-09-07T02:55:44.130Z,67.16
2022-09-07T02:56:51.290Z,67.39
2022-09-07T02:58:00.446Z,66.96
2022-09-07T02:59:07.663Z,67.33
2022-09-07T03:00:14.242Z,67.20
2022-09-07T03:01:24.693Z,67.82
2022-09-07T03:02:26.390Z,67.72
2022-09-07T03:03:35.312Z,67.79
2022-09-07T03:04:36.930Z,67.34
2022-09-07T03:05:42.913Z,66.83
2022-09-07T03:06:46.268Z,66.87
2022-09-07T03:07:50.679Z,66.95
2022-09-07T03:08:53.551Z,67.18
2022-09-07T03:09:55.111Z,67.53
2022-09-07T03:10:56.666Z,67.17
2022-09-07T03:11:58.261Z,67.08
2022-09-07T03:12:59.778Z,67.01
2022-09-07T03:14:16.711Z,67.52
2022-09-07T03:15:21.885Z,67.95
2022-09-07T03:16:23.605Z,67.97
2022-09-07T03:17:25.211Z,67.94
2022-09-07T03:18:27.010Z,67.90
2022-09-07T03:19:28.560Z,67.83
2022-09-07T03:20:30.075Z,67.63
2022-09-07T03:21:31.674Z,67.90
2022-09-07T03:22:34.863Z,68.06
2022-09-07T03:23:37.734Z,68.26
2022-09-07T03:24:39.977Z,68.33
2022-09-07T03:25:41.495Z,68.21
2022-09-07T03:26:43.800Z,68.69
2022-09-07T03:27:45.482Z,68.30
2022-09-07T03:28:47.595Z,68.14
2022-09-07T03:29:49.231Z,68.71
2022-09-07T03:30:50.835Z,68.45
2022-09-07T03:31:52.491Z,68.76
2022-09-07T03:32:54.016Z,67.94
2022-09-07T03:33:55.569Z,68.90
2022-09-07T03:34:57.094Z,68.62
2022-09-07T03:35:59.826Z,68.69
2022-09-07T03:37:01.330Z,69.10
2022-09-07T03:38:02.939Z,68.82
2022-09-07T03:39:04.605Z,69.20
2022-09-07T03:40:07.259Z,69.66
2022-09-07T03:41:08.933Z,69.34
2022-09-07T03:42:10.438Z,69.72
2022-09-07T03:43:12.326Z,69.93
2022-09-07T03:44:13.899Z,69.73
2022-09-07T03:45:15.476Z,69.58
2022-09-07T03:46:19.540Z,69.72
2022-09-07T03:47:21.126Z,69.24
2022-09-07T03:48:22.626Z,70.00
2022-09-07T03:49:24.168Z,70.28
2022-09-07T03:50:25.725Z,70.32
2022-09-07T03:51:27.247Z,70.87
2022-09-07T03:52:28.986Z,70.88
2022-09-07T03:53:33.938Z,70.76
2022-09-07T03:54:39.021Z,71.02
2022-09-07T03:55:41.266Z,71.12
2022-09-07T03:56:42.819Z,70.99
2022-09-07T03:57:44.354Z,70.78
2022-09-07T03:58:46.191Z,71.21
2022-09-07T03:59:47.818Z,71.31
2022-09-07T04:00:49.366Z,71.11
2022-09-07T04:01:50.978Z,71.18
2022-09-07T04:02:52.608Z,70.62
2022-09-07T04:04:00.039Z,70.67
2022-09-07T04:05:03.718Z,70.58
2022-09-07T04:06:05.358Z,70.58
2022-09-07T04:07:06.915Z,70.77
2022-09-07T04:08:08.468Z,70.36
2022-09-07T04:09:11.239Z,70.14
2022-09-07T04:10:12.737Z,70.42
2022-09-07T04:11:15.378Z,70.16
2022-09-07T04:12:16.938Z,70.12
2022-09-07T04:13:18.491Z,70.25
2022-09-07T04:14:20.074Z,70.37
2022-09-07T04:15:21.569Z,70.34
2022-09-07T04:16:23.879Z,70.84
2022-09-07T04:17:25.430Z,70.36
2022-09-07T04:18:27.002Z,70.67
2022-09-07T04:19:29.175Z,70.46
2022-09-07T04:20:31.222Z,70.40
2022-09-07T04:21:32.894Z,70.41
2022-09-07T04:22:34.388Z,70.62
2022-09-07T04:23:39.567Z,70.35
2022-09-07T04:24:41.065Z,70.40
2022-09-07T04:25:48.957Z,70.25
2022-09-07T04:26:50.463Z,70.52
2022-09-07T04:27:52.125Z,70.76
2022-09-07T04:28:54.406Z,70.49
2022-09-07T04:29:55.908Z,70.37
2022-09-07T04:31:01.501Z,70.70
2022-09-07T04:32:03.046Z,70.53
2022-09-07T04:33:04.567Z,70.52
2022-09-07T04:34:06.193Z,70.45
2022-09-07T04:35:07.844Z,70.25
2022-09-07T04:36:09.449Z,70.22
2022-09-07T04:37:12.570Z,70.44
2022-09-07T04:38:14.546Z,70.18
2022-09-07T04:39:16.153Z,69.92
2022-09-07T04:40:17.703Z,70.02
2022-09-07T04:41:19.307Z,69.78
2022-09-07T04:42:21.023Z,69.70
2022-09-07T04:43:22.514Z,69.74
2022-09-07T04:44:24.024Z,69.76
2022-09-07T04:45:25.694Z,70.00
2022-09-07T04:46:27.958Z,69.47
2022-09-07T04:47:30.759Z,69.58
2022-09-07T04:48:32.285Z,69.71
2022-09-07T04:49:33.771Z,69.48
2022-09-07T04:50:35.335Z,70.14
2022-09-07T04:51:36.857Z,70.03
2022-09-07T04:52:38.346Z,69.98
2022-09-07T04:53:39.874Z,70.32
2022-09-07T04:54:41.518Z,70.78
2022-09-07T04:55:43.033Z,70.97
2022-09-07T04:56:44.670Z,70.98
2022-09-07T04:57:48.710Z,71.16
2022-09-07T04:58:50.248Z,71.69
2022-09-07T04:59:52.258Z,71.67
2022-09-07T05:00:54.183Z,71.82
2022-09-07T05:01:55.795Z,72.59
2022-09-07T05:02:57.394Z,72.60
2022-09-07T05:03:59.549Z,72.48
2022-09-07T05:05:02.911Z,72.56
2022-09-07T05:06:04.797Z,72.64
2022-09-07T05:07:06.379Z,72.36
2022-09-07T05:08:07.904Z,72.40
2022-09-07T05:09:09.858Z,72.15
2022-09-07T05:10:11.423Z,71.97
2022-09-07T05:11:13.033Z,71.63
2022-09-07T05:12:14.575Z,71.59
2022-09-07T05:13:16.172Z,71.76
2022-09-07T05:14:17.670Z,71.53
2022-09-07T05:15:19.174Z,71.56
2022-09-07T05:16:21.765Z,71.82
2022-09-07T05:17:23.350Z,71.63
2022-09-07T05:18:25.214Z,71.41
2022-09-07T05:19:27.914Z,71.37
2022-09-07T05:20:29.410Z,71.81
2022-09-07T05:21:31.567Z,71.64
2022-09-07T05:22:35.606Z,71.21
2022-09-07T05:23:37.146Z,71.86
2022-09-07T05:24:38.646Z,71.59
2022-09-07T05:25:46.688Z,71.73
2022-09-07T05:26:48.224Z,71.76
2022-09-07T05:27:49.910Z,71.97
2022-09-07T05:28:52.180Z,72.03
2022-09-07T05:30:01.145Z,72.29
2022-09-07T05:31:19.792Z,72.31
2022-09-07T05:32:21.870Z,72.56
2022-09-07T05:34:46.038Z,72.59
2022-09-07T05:35:56.150Z,72.59
2022-09-07T05:36:57.642Z,72.36
2022-09-07T05:37:59.158Z,72.53
2022-09-07T05:39:00.707Z,72.50
2022-09-07T05:40:02.284Z,72.42
2022-09-07T05:41:30.195Z,72.48
2022-09-07T05:42:31.896Z,72.41
2022-09-07T05:43:33.979Z,72.15
2022-09-07T05:45:44.318Z,72.28
2022-09-07T05:46:45.867Z,72.12
2022-09-07T05:47:48.569Z,72.32
2022-09-07T05:48:50.086Z,72.52
2022-09-07T05:49:52.964Z,72.34
2022-09-07T05:50:57.996Z,72.26
2022-09-07T05:51:59.563Z,72.24
2022-09-07T05:53:01.085Z,72.27
2022-09-07T05:54:02.597Z,72.37
2022-09-07T05:55:26.261Z,72.41
2022-09-07T05:56:25.894Z,72.08
2022-09-07T05:57:27.674Z,72.11
2022-09-07T05:58:29.246Z,71.94
2022-09-07T05:59:30.842Z,72.18
2022-09-07T06:00:32.342Z,71.89
2022-09-07T06:01:35.574Z,71.81
2022-09-07T06:02:39.820Z,71.59
2022-09-07T06:03:41.790Z,71.57
2022-09-07T06:04:43.366Z,71.66
2022-09-07T06:05:44.911Z,71.67
2022-09-07T06:07:04.566Z,71.49
2022-09-07T06:08:08.023Z,71.64
2022-09-07T06:09:11.343Z,71.57
2022-09-07T06:11:36.296Z,71.67
2022-09-07T06:12:37.888Z,71.77
2022-09-07T06:13:40.063Z,71.85
2022-09-07T06:14:41.561Z,71.94
2022-09-07T06:15:44.092Z,72.16
2022-09-07T06:16:45.695Z,72.18
2022-09-07T06:17:47.273Z,72.32
2022-09-07T06:18:49.135Z,72.98
2022-09-07T06:19:50.627Z,73.16
2022-09-07T06:20:52.118Z,73.12
2022-09-07T06:21:53.719Z,73.47
2022-09-07T06:22:55.418Z,73.38
2022-09-07T06:23:57.500Z,73.71
2022-09-07T06:24:59.465Z,73.59
2022-09-07T06:26:01.116Z,73.66
2022-09-07T06:27:02.695Z,73.51
2022-09-07T06:28:04.213Z,73.75
2022-09-07T06:29:05.742Z,74.05
2022-09-07T06:30:07.698Z,73.81
2022-09-07T06:31:10.122Z,73.92
2022-09-07T06:33:33.606Z,74.12
2022-09-07T06:34:35.195Z,74.47
2022-09-07T06:35:36.721Z,74.95
2022-09-07T06:36:38.224Z,74.84
2022-09-07T06:37:39.799Z,74.40
2022-09-07T06:38:41.438Z,74.68
2022-09-07T06:39:43.046Z,74.43
2022-09-07T06:40:44.838Z,74.37
2022-09-07T06:42:01.614Z,74.12
2022-09-07T06:43:05.647Z,73.82
2022-09-07T06:44:07.359Z,73.48
2022-09-07T06:45:11.232Z,73.56
2022-09-07T06:47:35.066Z,73.52
2022-09-07T06:48:36.608Z,73.08
2022-09-07T06:49:38.273Z,73.22
2022-09-07T06:50:39.799Z,73.08
2022-09-07T06:51:41.314Z,73.21
2022-09-07T06:55:27.773Z,73.10
2022-09-07T06:56:30.050Z,72.98
2022-09-07T06:57:31.618Z,72.92
2022-09-07T06:58:33.203Z,72.93
2022-09-07T06:59:35.076Z,73.04
2022-09-07T07:00:36.618Z,73.05
2022-09-07T07:01:38.171Z,72.98
2022-09-07T07:02:39.723Z,72.90
2022-09-07T07:03:41.615Z,72.79
2022-09-07T07:04:43.194Z,72.92
2022-09-07T07:05:54.178Z,72.52
2022-09-07T07:06:55.690Z,72.79
2022-09-07T07:07:57.481Z,72.62
2022-09-07T07:08:59.022Z,72.39
2022-09-07T07:10:00.541Z,72.25
2022-09-07T07:11:06.642Z,72.58
2022-09-07T07:12:09.447Z,72.61
2022-09-07T07:13:10.961Z,72.52
2022-09-07T07:14:15.826Z,72.10
2022-09-07T07:15:17.334Z,72.02
2022-09-07T07:16:19.389Z,72.41
2022-09-07T07:17:20.950Z,72.62
2022-09-07T07:18:22.450Z,73.02
2022-09-07T07:19:24.020Z,72.90
2022-09-07T07:20:25.598Z,72.94
2022-09-07T07:21:28.962Z,72.65
2022-09-07T07:22:46.689Z,72.61
2022-09-07T07:23:51.872Z,72.50
2022-09-07T07:24:53.444Z,72.53
2022-09-07T07:25:54.964Z,72.34
2022-09-07T07:26:56.638Z,72.40
2022-09-07T07:29:20.006Z,71.31
2022-09-07T07:30:22.712Z,71.34
2022-09-07T07:31:24.876Z,71.22
2022-09-07T07:32:26.383Z,71.50
2022-09-07T07:33:31.764Z,71.42
2022-09-07T07:34:33.508Z,71.14
2022-09-07T07:35:35.440Z,71.00
2022-09-07T07:36:36.961Z,70.86
2022-09-07T07:37:38.607Z,70.67
2022-09-07T07:40:20.445Z,71.17
2022-09-07T07:42:45.910Z,70.36
2022-09-07T07:43:48.335Z,70.70
2022-09-07T07:46:15.263Z,71.02
2022-09-07T07:47:16.748Z,71.01
2022-09-07T07:48:18.242Z,69.71
2022-09-07T07:49:19.918Z,69.83
2022-09-07T07:50:36.764Z,69.19
2022-09-07T07:54:21.466Z,68.93
2022-09-07T07:56:44.439Z,69.05
2022-09-07T07:57:46.784Z,69.19
2022-09-07T07:58:48.499Z,68.72
2022-09-07T07:59:50.078Z,68.50
2022-09-07T08:00:54.688Z,68.05
2022-09-07T08:01:57.280Z,67.41
2022-09-07T08:02:58.891Z,67.66
2022-09-07T08:04:00.518Z,67.39
2022-09-07T08:05:02.399Z,66.72
2022-09-07T08:06:14.030Z,66.62
2022-09-07T08:07:15.822Z,67.02
2022-09-07T08:08:17.378Z,67.17
2022-09-07T08:09:18.859Z,66.69
2022-09-07T08:10:20.399Z,67.48
2022-09-07T08:11:22.069Z,67.00
2022-09-07T08:12:26.634Z,67.18
2022-09-07T08:13:33.788Z,68.03
2022-09-07T08:14:40.564Z,68.04
2022-09-07T08:15:45.211Z,68.24
2022-09-07T08:16:46.792Z,67.81
2022-09-07T08:17:48.460Z,67.95
2022-09-07T08:18:50.019Z,67.90
2022-09-07T08:19:52.421Z,67.56
2022-09-07T08:20:53.926Z,67.56
2022-09-07T08:21:55.380Z,67.66
2022-09-07T08:22:56.821Z,67.70
2022-09-07T08:24:00.079Z,68.01
2022-09-07T08:25:01.591Z,68.14
2022-09-07T08:26:03.204Z,67.92
2022-09-07T08:27:04.658Z,67.67
2022-09-07T08:28:06.203Z,67.72
2022-09-07T08:29:07.718Z,68.25
2022-09-07T08:30:09.698Z,68.59
2022-09-07T08:31:12.324Z,68.80
2022-09-07T08:32:13.791Z,68.43
2022-09-07T08:33:15.290Z,68.10
2022-09-07T08:34:16.793Z,68.14
2022-09-07T08:35:18.244Z,68.03
2022-09-07T08:36:20.021Z,67.50
2022-09-07T08:37:21.931Z,67.31
2022-09-07T08:38:23.414Z,67.00
2022-09-07T08:39:24.875Z,67.31
2022-09-07T08:40:26.407Z,67.53
2022-09-07T08:41:37.239Z,67.56
2022-09-07T08:42:57.247Z,67.53
2022-09-07T08:43:59.979Z,67.55
2022-09-07T08:45:04.158Z,67.58
2022-09-07T08:46:14.815Z,67.55
2022-09-07T08:47:25.714Z,67.57
2022-09-07T08:48:29.300Z,67.36
2022-09-07T08:49:37.738Z,67.36
2022-09-07T08:50:41.896Z,67.58
2022-09-07T08:51:45.383Z,67.85
2022-09-07T08:52:48.367Z,67.57
2022-09-07T08:53:50.202Z,67.72
2022-09-07T08:55:21.067Z,67.64
2022-09-07T08:56:23.976Z,67.64
2022-09-07T08:57:27.042Z,67.42
2022-09-07T08:58:48.649Z,67.46
2022-09-07T09:00:11.654Z,67.72
2022-09-07T09:02:43.206Z,67.71
2022-09-07T09:05:21.715Z,67.50
2022-09-07T09:06:43.704Z,67.40
2022-09-07T09:07:57.565Z,67.32
2022-09-07T09:09:23.784Z,67.03
2022-09-07T09:10:31.062Z,67.39
2022-09-07T09:11:38.291Z,67.14
2022-09-07T09:12:55.246Z,67.29
2022-09-07T09:14:08.935Z,67.36
2022-09-07T09:15:21.170Z,67.85
2022-09-07T09:16:24.182Z,67.99
2022-09-07T09:17:28.503Z,68.42
2022-09-07T09:18:30.037Z,68.57
2022-09-07T09:19:58.281Z,68.21
2022-09-07T09:20:59.746Z,67.57
2022-09-07T09:22:07.890Z,67.09
2022-09-07T09:23:13.091Z,66.02
2022-09-07T09:24:19.201Z,66.04
2022-09-07T09:25:21.402Z,66.18
2022-09-07T09:26:23.858Z,65.66
2022-09-07T09:27:25.290Z,65.79
2022-09-07T09:28:28.906Z,65.41
2022-09-07T09:29:33.408Z,65.52
2022-09-07T09:30:34.916Z,64.21
2022-09-07T09:31:36.556Z,64.87
2022-09-07T09:32:39.899Z,64.23
2022-09-07T09:33:42.223Z,63.71
2022-09-07T09:34:56.888Z,63.78
2022-09-07T09:35:59.311Z,63.66
2022-09-07T09:37:00.903Z,63.82
2022-09-07T09:38:05.069Z,62.68
2022-09-07T09:39:25.084Z,63.54
2022-09-07T09:40:35.768Z,62.72
2022-09-07T09:41:37.436Z,61.96
2022-09-07T09:42:39.102Z,61.87
2022-09-07T09:43:44.421Z,62.12
2022-09-07T09:44:46.028Z,61.79
2022-09-07T09:46:12.712Z,61.30
2022-09-07T09:47:30.718Z,62.33
2022-09-07T09:48:33.316Z,60.88
2022-09-07T09:49:35.683Z,60.94
2022-09-07T09:53:26.463Z,61.56
2022-09-07T09:54:29.779Z,59.63
2022-09-07T09:55:36.263Z,58.89
2022-09-07T09:56:38.032Z,58.73
2022-09-07T09:59:04.869Z,59.23
2022-09-07T10:01:21.186Z,57.98
2022-09-07T10:04:55.831Z,55.36
2022-09-07T10:05:57.264Z,54.48
2022-09-07T10:07:09.062Z,53.29
2022-09-07T10:08:26.508Z,54.70
2022-09-07T10:09:37.971Z,53.56
2022-09-07T10:10:39.651Z,51.86
2022-09-07T10:13:08.680Z,51.73
2022-09-07T10:14:36.327Z,50.82
2022-09-07T10:15:40.940Z,50.62
2022-09-07T10:16:44.135Z,49.68
2022-09-07T10:17:45.555Z,49.98
2022-09-07T10:18:56.683Z,50.03
2022-09-07T10:20:16.412Z,50.71
2022-09-07T10:21:36.049Z,50.38
2022-09-07T10:22:37.589Z,49.76
2022-09-07T10:23:39.059Z,49.44
2022-09-07T10:24:41.460Z,48.41
2022-09-07T10:25:45.918Z,48.34
2022-09-07T10:26:48.670Z,47.74
2022-09-07T10:27:55.575Z,47.50
2022-09-07T10:29:12.486Z,47.76
2022-09-07T10:30:14.870Z,46.71
2022-09-07T10:31:19.454Z,46.23
2022-09-07T10:32:24.003Z,44.75
2022-09-07T10:33:43.608Z,44.00
2022-09-07T10:35:05.889Z,44.65
2022-09-07T10:36:07.334Z,44.15
2022-09-07T10:37:09.927Z,43.69
2022-09-07T10:38:24.958Z,45.17
2022-09-07T10:39:37.001Z,43.04
2022-09-07T10:40:42.997Z,43.98
2022-09-07T10:41:57.269Z,43.94
2022-09-07T10:44:26.326Z,42.39
2022-09-07T10:45:30.979Z,42.56
2022-09-07T10:47:00.672Z,42.01
2022-09-07T10:48:14.239Z,42.10
2022-09-07T10:49:15.700Z,42.72
2022-09-07T10:50:23.224Z,43.05
2022-09-07T10:51:33.854Z,42.42
2022-09-07T10:52:41.406Z,41.48
2022-09-07T10:53:46.574Z,41.04
2022-09-07T10:54:55.071Z,41.85
2022-09-07T10:55:56.586Z,40.65
2022-09-07T10:56:58.032Z,40.62
2022-09-07T10:58:11.394Z,41.63
2022-09-07T10:59:15.570Z,41.58
2022-09-07T11:00:17.982Z,40.76
2022-09-07T11:01:23.061Z,40.75
2022-09-07T11:02:28.239Z,40.28
2022-09-07T11:03:32.763Z,40.44
2022-09-07T11:04:44.389Z,40.54
2022-09-07T11:06:04.835Z,40.68
2022-09-07T11:07:29.642Z,40.45
2022-09-07T11:09:15.104Z,40.42
2022-09-07T11:10:15.839Z,40.47
2022-09-07T11:12:00.651Z,40.41
2022-09-07T11:12:45.124Z,40.17
2022-09-07T11:14:09.264Z,40.07
2022-09-07T11:15:14.175Z,39.81
2022-09-07T11:17:53.337Z,39.78
2022-09-07T11:19:35.049Z,40.37
2022-09-07T11:20:18.968Z,40.87
2022-09-07T11:22:49.701Z,40.35
2022-09-07T11:23:55.426Z,41.00
2022-09-07T11:26:30.458Z,40.48
2022-09-07T11:27:39.707Z,41.49
2022-09-07T11:28:46.154Z,40.92
2022-09-07T11:29:48.969Z,40.34
2022-09-07T11:31:11.502Z,40.84
2022-09-07T11:32:15.667Z,41.00
2022-09-07T11:33:20.877Z,41.14
2022-09-07T11:34:25.492Z,41.28
2022-09-07T11:35:31.633Z,41.05
2022-09-07T11:36:33.584Z,41.11
2022-09-07T11:37:43.915Z,42.28
2022-09-07T11:38:46.655Z,42.04
2022-09-07T11:39:48.574Z,42.08
2022-09-07T11:40:58.936Z,41.78
2022-09-07T11:42:42.220Z,42.20
2022-09-07T11:43:23.812Z,41.44
2022-09-07T11:44:26.083Z,42.08
2022-09-07T11:45:27.551Z,41.55
2022-09-07T11:46:33.885Z,42.17
2022-09-07T11:47:44.259Z,41.17
2022-09-07T11:48:46.977Z,41.21
2022-09-07T11:49:54.155Z,41.42
2022-09-07T11:50:59.999Z,42.02
2022-09-07T11:52:08.921Z,42.29
2022-09-07T11:53:29.176Z,41.36
2022-09-07T11:54:36.448Z,40.46
2022-09-07T11:55:38.437Z,40.34
2022-09-07T11:56:39.880Z,40.50
2022-09-07T11:57:55.471Z,40.81
2022-09-07T11:58:57.254Z,40.89
2022-09-07T12:00:02.092Z,40.90
2022-09-07T12:01:29.732Z,40.95
2022-09-07T12:02:55.430Z,41.34
2022-09-07T12:03:52.868Z,40.95
2022-09-07T12:04:57.306Z,39.96
2022-09-07T12:06:11.398Z,40.40
2022-09-07T12:07:31.479Z,39.72
2022-09-07T12:08:54.472Z,39.96
2022-09-07T12:10:15.107Z,39.63
2022-09-07T12:11:23.457Z,38.94
2022-09-07T12:12:28.235Z,38.57
2022-09-07T12:13:41.845Z,39.37
2022-09-07T12:15:01.767Z,38.68
2022-09-07T12:16:19.964Z,38.83
2022-09-07T12:17:24.278Z,38.92
2022-09-07T12:18:41.238Z,39.40
2022-09-07T12:19:42.682Z,38.15
2022-09-07T12:20:44.912Z,38.65
2022-09-07T12:21:50.299Z,38.69
2022-09-07T12:22:54.875Z,38.40
2022-09-07T12:23:56.303Z,38.66
2022-09-07T12:24:58.237Z,38.02
2022-09-07T12:26:18.695Z,38.70
2022-09-07T12:27:20.114Z,39.05
2022-09-07T12:28:24.222Z,39.17
2022-09-07T12:29:26.380Z,38.44
2022-09-07T12:30:30.096Z,39.21
2022-09-07T12:31:57.621Z,39.76
2022-09-07T12:33:04.343Z,40.04
2022-09-07T12:34:35.407Z,39.98
2022-09-07T12:35:40.135Z,39.88
2022-09-07T12:36:46.746Z,39.52
2022-09-07T12:37:48.183Z,38.96
2022-09-07T12:39:06.427Z,38.15
2022-09-07T12:40:27.126Z,38.77
2022-09-07T12:41:40.684Z,39.06
2022-09-07T12:42:42.338Z,37.71
2022-09-07T12:43:43.790Z,38.13
2022-09-07T12:44:45.502Z,38.72
2022-09-07T12:45:47.189Z,38.42
2022-09-07T12:46:50.428Z,38.33
2022-09-07T12:48:04.523Z,39.01
2022-09-07T12:49:17.662Z,39.26
2022-09-07T12:50:21.686Z,39.58
2022-09-07T12:52:45.729Z,39.30
2022-09-07T12:53:54.220Z,38.75
2022-09-07T12:55:27.888Z,38.65
2022-09-07T12:56:29.629Z,39.00
2022-09-07T12:57:34.189Z,39.43
2022-09-07T12:58:41.415Z,39.18
2022-09-07T12:59:49.086Z,38.57
2022-09-07T13:00:53.383Z,38.59
2022-09-07T13:01:54.885Z,38.75
2022-09-07T13:05:06.357Z,38.83
2022-09-07T13:06:16.313Z,38.60
2022-09-07T13:07:20.718Z,38.43
2022-09-07T13:08:40.958Z,38.61
2022-09-07T13:09:42.563Z,38.88
2022-09-07T13:10:44.146Z,38.69
2022-09-07T13:11:45.787Z,39.27
2022-09-07T13:12:57.020Z,39.51
2022-09-07T13:14:14.535Z,39.59
2022-09-07T13:15:36.916Z,39.39
2022-09-07T13:18:00.671Z,39.28
2022-09-07T13:19:03.196Z,39.60
2022-09-07T13:20:06.686Z,38.76
2022-09-07T13:21:08.196Z,39.11
2022-09-07T13:22:28.672Z,38.99
2022-09-07T13:23:30.330Z,38.22
2022-09-07T13:24:46.132Z,38.47
2022-09-07T13:25:50.000Z,38.76
2022-09-07T13:26:51.522Z,38.94
2022-09-07T13:27:56.095Z,39.00
2022-09-07T13:29:04.403Z,38.88
2022-09-07T13:30:43.963Z,38.93
2022-09-07T13:32:04.363Z,38.89
2022-09-07T13:33:24.045Z,38.80
2022-09-07T13:34:34.602Z,39.17
2022-09-07T13:35:36.042Z,39.13
2022-09-07T13:36:44.760Z,39.32
2022-09-07T13:37:52.382Z,39.35
2022-09-07T13:38:54.025Z,39.22
2022-09-07T13:39:56.389Z,39.60
2022-09-07T13:41:04.255Z,39.15
2022-09-07T13:42:05.720Z,39.31
2022-09-07T13:43:07.334Z,39.29
2022-09-07T13:44:15.221Z,39.46
2022-09-07T13:45:26.975Z,39.47
2022-09-07T13:46:33.677Z,39.62
2022-09-07T13:47:35.205Z,39.35
2022-09-07T13:48:48.834Z,39.45
2022-09-07T13:49:56.320Z,39.52
2022-09-07T13:50:57.797Z,39.46
2022-09-07T13:51:59.207Z,39.23
2022-09-07T13:53:00.654Z,39.03
2022-09-07T13:54:14.246Z,39.19
2022-09-07T13:55:27.837Z,39.27
2022-09-07T13:56:32.087Z,39.65
2022-09-07T13:57:43.154Z,39.31
2022-09-07T13:58:46.458Z,39.43
2022-09-07T13:59:47.932Z,39.49
2022-09-07T14:00:52.992Z,38.84
2022-09-07T14:01:54.557Z,39.26
2022-09-07T14:02:57.144Z,39.30
2022-09-07T14:03:59.838Z,39.16
2022-09-07T14:05:01.394Z,39.45
2022-09-07T14:06:14.798Z,39.54
2022-09-07T14:07:17.074Z,39.56
2022-09-07T14:08:25.526Z,39.58
2022-09-07T14:09:26.953Z,39.46
2022-09-07T14:10:29.188Z,39.48
2022-09-07T14:11:38.827Z,39.05
2022-09-07T14:13:03.141Z,39.09
2022-09-07T14:14:14.730Z,38.78
2022-09-07T14:15:22.328Z,38.60
2022-09-07T14:16:23.945Z,39.03
2022-09-07T14:17:25.451Z,38.72
2022-09-07T14:18:30.223Z,38.73
2022-09-07T14:19:39.406Z,36.33
2022-09-07T14:20:41.814Z,36.57
2022-09-07T14:21:43.274Z,36.90
2022-09-07T14:22:45.994Z,37.16
2022-09-07T14:23:49.498Z,36.94
2022-09-07T14:24:51.810Z,37.45
2022-09-07T14:26:26.322Z,37.43
2022-09-07T14:27:34.974Z,37.39
2022-09-07T14:28:36.885Z,37.60
2022-09-07T14:29:38.342Z,37.68
2022-09-07T14:30:41.906Z,37.44
2022-09-07T14:31:44.027Z,37.68
2022-09-07T14:32:48.735Z,37.32
2022-09-07T14:33:51.831Z,37.08
2022-09-07T14:34:53.354Z,37.68
2022-09-07T14:35:54.835Z,37.75
2022-09-07T14:36:56.943Z,37.59
2022-09-07T14:38:01.038Z,37.91
2022-09-07T14:39:13.332Z,37.61
2022-09-07T14:40:20.734Z,37.42
2022-09-07T14:41:22.302Z,37.49
2022-09-07T14:42:23.888Z,37.21
2022-09-07T14:43:28.519Z,37.37